sensor_id;sensor_type;location;lat;lon;timestamp;temperature;humidity
62259;DHT22;48241;48.824;10.102;2023-04-10T00:01:22;5.40;90.20
62259;DHT22;48241;48.824;10.102;2023-04-10T00:04:00;4.70;90.60
62259;DHT22;48241;48.824;10.102;2023-04-10T00:06:45;5.60;90.70
62259;DHT22;48241;48.824;10.102;2023-04-10T00:09:23;5.50;90.30
62259;DHT22;48241;48.824;10.102;2023-04-10T00:12:14;4.90;90.00
62259;DHT22;48241;48.824;10.102;2023-04-10T00:19:12;5.40;90.50
62259;DHT22;48241;48.824;10.102;2023-04-10T00:22:23;4.00;90.10
62259;DHT22;48241;48.824;10.102;2023-04-10T00:24:58;4.50;91.00
62259;DHT22;48241;48.824;10.102;2023-04-10T00:28:08;5.90;91.60
62259;DHT22;48241;48.824;10.102;2023-04-10T00:31:14;4.70;91.70
62259;DHT22;48241;48.824;10.102;2023-04-10T00:38:14;5.20;91.40
62259;DHT22;48241;48.824;10.102;2023-04-10T00:41:36;4.90;91.40
62259;DHT22;48241;48.824;10.102;2023-04-10T00:45:02;5.30;91.10
62259;DHT22;48241;48.824;10.102;2023-04-10T00:48:13;5.20;91.20
62259;DHT22;48241;48.824;10.102;2023-04-10T00:55:01;5.20;90.90
62259;DHT22;48241;48.824;10.102;2023-04-10T00:58:42;5.90;91.30
62259;DHT22;48241;48.824;10.102;2023-04-10T01:02:13;3.90;91.00
62259;DHT22;48241;48.824;10.102;2023-04-10T01:12:50;5.30;92.10
62259;DHT22;48241;48.824;10.102;2023-04-10T01:18:52;4.90;91.90
62259;DHT22;48241;48.824;10.102;2023-04-10T01:21:41;4.70;92.00
62259;DHT22;48241;48.824;10.102;2023-04-10T01:38:16;4.70;92.20
62259;DHT22;48241;48.824;10.102;2023-04-10T01:41:56;5.20;92.70
62259;DHT22;48241;48.824;10.102;2023-04-10T01:45:22;4.80;92.60
62259;DHT22;48241;48.824;10.102;2023-04-10T01:48:55;4.80;92.50
62259;DHT22;48241;48.824;10.102;2023-04-10T01:52:36;4.90;92.40
62259;DHT22;48241;48.824;10.102;2023-04-10T02:12:54;4.40;94.00
62259;DHT22;48241;48.824;10.102;2023-04-10T02:16:04;4.30;94.50
62259;DHT22;48241;48.824;10.102;2023-04-10T02:19:10;4.40;94.40
62259;DHT22;48241;48.824;10.102;2023-04-10T02:29:06;4.70;93.40
62259;DHT22;48241;48.824;10.102;2023-04-10T02:32:35;4.90;93.30
62259;DHT22;48241;48.824;10.102;2023-04-10T02:36:11;4.60;93.50
62259;DHT22;48241;48.824;10.102;2023-04-10T02:39:31;4.40;93.20
62259;DHT22;48241;48.824;10.102;2023-04-10T02:42:15;4.40;93.90
62259;DHT22;48241;48.824;10.102;2023-04-10T02:45:02;4.50;93.30
62259;DHT22;48241;48.824;10.102;2023-04-10T02:52:12;4.20;93.70
62259;DHT22;48241;48.824;10.102;2023-04-10T02:55:14;3.80;93.50
62259;DHT22;48241;48.824;10.102;2023-04-10T03:02:06;4.10;93.50
62259;DHT22;48241;48.824;10.102;2023-04-10T03:04:48;4.20;93.50
62259;DHT22;48241;48.824;10.102;2023-04-10T03:10:55;4.10;93.80
62259;DHT22;48241;48.824;10.102;2023-04-10T03:14:14;3.70;94.00
62259;DHT22;48241;48.824;10.102;2023-04-10T03:17:00;4.00;94.20
62259;DHT22;48241;48.824;10.102;2023-04-10T03:23:15;4.00;94.30
62259;DHT22;48241;48.824;10.102;2023-04-10T03:26:45;5.10;94.40
62259;DHT22;48241;48.824;10.102;2023-04-10T03:29:41;3.80;94.40
62259;DHT22;48241;48.824;10.102;2023-04-10T03:42:44;3.90;94.50
62259;DHT22;48241;48.824;10.102;2023-04-10T03:45:36;3.80;94.60
62259;DHT22;48241;48.824;10.102;2023-04-10T03:51:54;3.90;95.30
62259;DHT22;48241;48.824;10.102;2023-04-10T03:55:15;5.30;95.10
62259;DHT22;48241;48.824;10.102;2023-04-10T03:58:51;3.30;94.90
62259;DHT22;48241;48.824;10.102;2023-04-10T04:19:19;4.20;93.30
62259;DHT22;48241;48.824;10.102;2023-04-10T04:21:58;5.10;93.80
62259;DHT22;48241;48.824;10.102;2023-04-10T04:24:27;4.40;93.40
62259;DHT22;48241;48.824;10.102;2023-04-10T04:26:53;4.20;93.00
62259;DHT22;48241;48.824;10.102;2023-04-10T04:29:18;3.30;93.00
62259;DHT22;48241;48.824;10.102;2023-04-10T04:31:44;4.30;93.20
62259;DHT22;48241;48.824;10.102;2023-04-10T04:34:10;4.50;92.90
62259;DHT22;48241;48.824;10.102;2023-04-10T04:36:36;4.00;93.00
62259;DHT22;48241;48.824;10.102;2023-04-10T04:39:02;4.30;93.10
62259;DHT22;48241;48.824;10.102;2023-04-10T04:41:28;4.30;93.00
62259;DHT22;48241;48.824;10.102;2023-04-10T04:44:00;4.40;92.70
62259;DHT22;48241;48.824;10.102;2023-04-10T04:46:40;4.60;92.50
62259;DHT22;48241;48.824;10.102;2023-04-10T04:49:09;4.90;92.10
62259;DHT22;48241;48.824;10.102;2023-04-10T04:51:36;4.60;92.00
62259;DHT22;48241;48.824;10.102;2023-04-10T04:54:20;4.70;91.70
62259;DHT22;48241;48.824;10.102;2023-04-10T04:56:46;4.60;91.20
62259;DHT22;48241;48.824;10.102;2023-04-10T05:06:16;4.90;90.60
62259;DHT22;48241;48.824;10.102;2023-04-10T05:08:53;5.10;89.80
62259;DHT22;48241;48.824;10.102;2023-04-10T05:11:22;5.70;89.50
62259;DHT22;48241;48.824;10.102;2023-04-10T05:13:59;5.80;89.10
62259;DHT22;48241;48.824;10.102;2023-04-10T05:16:25;7.40;89.20
62259;DHT22;48241;48.824;10.102;2023-04-10T05:18:57;6.50;87.30
62259;DHT22;48241;48.824;10.102;2023-04-10T05:21:31;6.10;85.60
62259;DHT22;48241;48.824;10.102;2023-04-10T05:23:57;6.60;85.10
62259;DHT22;48241;48.824;10.102;2023-04-10T05:26:26;7.10;83.30
62259;DHT22;48241;48.824;10.102;2023-04-10T05:32:39;7.10;81.40
62259;DHT22;48241;48.824;10.102;2023-04-10T05:35:44;8.40;80.90
62259;DHT22;48241;48.824;10.102;2023-04-10T05:59:57;8.20;77.20
62259;DHT22;48241;48.824;10.102;2023-04-10T06:10:26;9.20;72.10
62259;DHT22;48241;48.824;10.102;2023-04-10T06:16:38;10.50;67.70
62259;DHT22;48241;48.824;10.102;2023-04-10T06:19:07;12.20;63.70
62259;DHT22;48241;48.824;10.102;2023-04-10T06:21:34;12.60;60.70
62259;DHT22;48241;48.824;10.102;2023-04-10T06:24:05;14.20;57.20
62259;DHT22;48241;48.824;10.102;2023-04-10T06:26:32;14.00;55.70
62259;DHT22;48241;48.824;10.102;2023-04-10T06:29:07;13.10;55.70
62259;DHT22;48241;48.824;10.102;2023-04-10T06:31:38;13.60;56.40
62259;DHT22;48241;48.824;10.102;2023-04-10T06:34:05;14.40;53.90
62259;DHT22;48241;48.824;10.102;2023-04-10T06:36:32;15.50;51.80
62259;DHT22;48241;48.824;10.102;2023-04-10T06:39:01;16.60;50.50
62259;DHT22;48241;48.824;10.102;2023-04-10T06:48:14;18.10;45.90
62259;DHT22;48241;48.824;10.102;2023-04-10T06:50:44;16.30;48.10
62259;DHT22;48241;48.824;10.102;2023-04-10T06:53:10;16.10;48.70
62259;DHT22;48241;48.824;10.102;2023-04-10T06:55:39;16.10;47.90
62259;DHT22;48241;48.824;10.102;2023-04-10T06:58:07;16.10;47.90
62259;DHT22;48241;48.824;10.102;2023-04-10T07:00:39;15.90;47.50
62259;DHT22;48241;48.824;10.102;2023-04-10T07:03:19;16.20;47.20
62259;DHT22;48241;48.824;10.102;2023-04-10T07:05:47;15.50;49.60
62259;DHT22;48241;48.824;10.102;2023-04-10T07:08:16;15.70;48.40
62259;DHT22;48241;48.824;10.102;2023-04-10T07:10:52;16.50;46.90
62259;DHT22;48241;48.824;10.102;2023-04-10T07:13:18;16.10;47.40
62259;DHT22;48241;48.824;10.102;2023-04-10T07:15:44;16.70;47.30
62259;DHT22;48241;48.824;10.102;2023-04-10T07:18:10;16.90;46.40
62259;DHT22;48241;48.824;10.102;2023-04-10T07:20:38;16.40;46.80
62259;DHT22;48241;48.824;10.102;2023-04-10T07:23:03;15.90;47.40
62259;DHT22;48241;48.824;10.102;2023-04-10T07:25:30;16.70;47.30
62259;DHT22;48241;48.824;10.102;2023-04-10T07:27:56;16.60;46.80
62259;DHT22;48241;48.824;10.102;2023-04-10T07:30:24;16.40;48.20
62259;DHT22;48241;48.824;10.102;2023-04-10T07:32:50;17.10;46.90
62259;DHT22;48241;48.824;10.102;2023-04-10T07:35:16;17.10;46.80
62259;DHT22;48241;48.824;10.102;2023-04-10T07:37:42;16.30;47.40
62259;DHT22;48241;48.824;10.102;2023-04-10T07:40:09;17.20;47.40
62259;DHT22;48241;48.824;10.102;2023-04-10T07:42:35;18.20;44.70
62259;DHT22;48241;48.824;10.102;2023-04-10T07:45:01;18.80;43.70
62259;DHT22;48241;48.824;10.102;2023-04-10T07:47:27;18.80;42.70
62259;DHT22;48241;48.824;10.102;2023-04-10T07:49:53;17.60;43.60
62259;DHT22;48241;48.824;10.102;2023-04-10T07:52:18;16.80;45.50
62259;DHT22;48241;48.824;10.102;2023-04-10T07:54:45;17.40;45.40
62259;DHT22;48241;48.824;10.102;2023-04-10T07:57:11;17.40;44.60
62259;DHT22;48241;48.824;10.102;2023-04-10T07:59:37;18.60;44.70
62259;DHT22;48241;48.824;10.102;2023-04-10T08:02:03;17.80;44.20
62259;DHT22;48241;48.824;10.102;2023-04-10T08:05:35;18.60;45.10
62259;DHT22;48241;48.824;10.102;2023-04-10T08:08:11;17.50;45.10
62259;DHT22;48241;48.824;10.102;2023-04-10T08:10:38;18.50;44.30
62259;DHT22;48241;48.824;10.102;2023-04-10T08:13:04;19.20;42.50
62259;DHT22;48241;48.824;10.102;2023-04-10T08:15:30;18.80;41.80
62259;DHT22;48241;48.824;10.102;2023-04-10T08:18:01;19.10;42.00
62259;DHT22;48241;48.824;10.102;2023-04-10T08:20:31;19.00;42.00
62259;DHT22;48241;48.824;10.102;2023-04-10T08:23:08;19.70;41.50
62259;DHT22;48241;48.824;10.102;2023-04-10T08:25:36;19.40;41.30
62259;DHT22;48241;48.824;10.102;2023-04-10T08:28:04;19.20;42.30
62259;DHT22;48241;48.824;10.102;2023-04-10T08:31:29;18.60;42.40
62259;DHT22;48241;48.824;10.102;2023-04-10T08:34:00;18.70;42.30
62259;DHT22;48241;48.824;10.102;2023-04-10T08:36:30;19.20;41.90
62259;DHT22;48241;48.824;10.102;2023-04-10T08:38:56;18.90;41.80
62259;DHT22;48241;48.824;10.102;2023-04-10T08:41:26;17.90;42.40
62259;DHT22;48241;48.824;10.102;2023-04-10T08:43:52;17.80;42.60
62259;DHT22;48241;48.824;10.102;2023-04-10T08:46:31;18.50;43.80
62259;DHT22;48241;48.824;10.102;2023-04-10T08:49:05;19.30;41.10
62259;DHT22;48241;48.824;10.102;2023-04-10T08:52:05;19.00;41.00
62259;DHT22;48241;48.824;10.102;2023-04-10T08:54:42;18.40;41.50
62259;DHT22;48241;48.824;10.102;2023-04-10T08:57:14;19.10;41.10
62259;DHT22;48241;48.824;10.102;2023-04-10T09:00:14;19.10;41.10
62259;DHT22;48241;48.824;10.102;2023-04-10T09:02:41;18.90;41.50
62259;DHT22;48241;48.824;10.102;2023-04-10T09:05:14;18.60;42.00
62259;DHT22;48241;48.824;10.102;2023-04-10T09:07:40;19.30;41.40
62259;DHT22;48241;48.824;10.102;2023-04-10T09:10:07;19.70;40.30
62259;DHT22;48241;48.824;10.102;2023-04-10T09:12:45;19.50;39.80
62259;DHT22;48241;48.824;10.102;2023-04-10T09:15:13;20.20;40.20
62259;DHT22;48241;48.824;10.102;2023-04-10T09:17:59;18.80;40.90
62259;DHT22;48241;48.824;10.102;2023-04-10T09:20:29;17.90;41.90
62259;DHT22;48241;48.824;10.102;2023-04-10T09:22:58;17.60;41.40
62259;DHT22;48241;48.824;10.102;2023-04-10T09:28:14;18.70;42.00
62259;DHT22;48241;48.824;10.102;2023-04-10T09:30:46;18.90;41.40
62259;DHT22;48241;48.824;10.102;2023-04-10T09:33:24;18.70;41.30
62259;DHT22;48241;48.824;10.102;2023-04-10T09:35:58;18.40;42.20
62259;DHT22;48241;48.824;10.102;2023-04-10T09:38:50;17.70;43.50
62259;DHT22;48241;48.824;10.102;2023-04-10T09:41:34;18.20;43.10
62259;DHT22;48241;48.824;10.102;2023-04-10T09:44:28;18.40;42.90
62259;DHT22;48241;48.824;10.102;2023-04-10T09:47:14;18.10;41.90
62259;DHT22;48241;48.824;10.102;2023-04-10T09:49:55;18.20;42.80
62259;DHT22;48241;48.824;10.102;2023-04-10T09:52:41;18.80;40.40
62259;DHT22;48241;48.824;10.102;2023-04-10T09:55:08;20.40;39.10
62259;DHT22;48241;48.824;10.102;2023-04-10T09:57:41;20.30;38.10
62259;DHT22;48241;48.824;10.102;2023-04-10T10:00:09;20.00;39.20
62259;DHT22;48241;48.824;10.102;2023-04-10T10:02:36;21.30;37.50
62259;DHT22;48241;48.824;10.102;2023-04-10T10:05:05;20.50;36.10
62259;DHT22;48241;48.824;10.102;2023-04-10T10:07:31;18.30;38.20
62259;DHT22;48241;48.824;10.102;2023-04-10T10:09:57;18.90;40.10
62259;DHT22;48241;48.824;10.102;2023-04-10T10:12:32;19.50;37.20
62259;DHT22;48241;48.824;10.102;2023-04-10T10:21:10;18.80;37.80
62259;DHT22;48241;48.824;10.102;2023-04-10T10:23:39;17.40;39.70
62259;DHT22;48241;48.824;10.102;2023-04-10T10:26:18;16.60;40.10
62259;DHT22;48241;48.824;10.102;2023-04-10T10:28:46;16.20;40.80
62259;DHT22;48241;48.824;10.102;2023-04-10T10:31:22;15.70;42.10
62259;DHT22;48241;48.824;10.102;2023-04-10T10:34:03;15.60;44.00
62259;DHT22;48241;48.824;10.102;2023-04-10T10:36:31;15.20;43.10
62259;DHT22;48241;48.824;10.102;2023-04-10T10:39:19;15.60;42.50
62259;DHT22;48241;48.824;10.102;2023-04-10T10:42:16;15.30;42.50
62259;DHT22;48241;48.824;10.102;2023-04-10T10:47:18;15.40;42.60
62259;DHT22;48241;48.824;10.102;2023-04-10T10:49:53;15.20;43.50
62259;DHT22;48241;48.824;10.102;2023-04-10T10:52:55;15.20;44.80
62259;DHT22;48241;48.824;10.102;2023-04-10T10:57:51;15.10;44.30
62259;DHT22;48241;48.824;10.102;2023-04-10T11:00:19;15.00;44.80
62259;DHT22;48241;48.824;10.102;2023-04-10T11:06:07;15.10;45.50
62259;DHT22;48241;48.824;10.102;2023-04-10T11:08:45;15.30;45.20
62259;DHT22;48241;48.824;10.102;2023-04-10T11:11:25;15.20;45.00
62259;DHT22;48241;48.824;10.102;2023-04-10T11:16:40;15.60;44.40
62259;DHT22;48241;48.824;10.102;2023-04-10T11:19:16;16.00;42.70
62259;DHT22;48241;48.824;10.102;2023-04-10T11:24:56;16.70;42.80
62259;DHT22;48241;48.824;10.102;2023-04-10T11:30:29;16.60;40.40
62259;DHT22;48241;48.824;10.102;2023-04-10T11:32:56;16.20;40.50
62259;DHT22;48241;48.824;10.102;2023-04-10T11:35:22;16.80;44.10
62259;DHT22;48241;48.824;10.102;2023-04-10T11:37:48;16.90;40.50
62259;DHT22;48241;48.824;10.102;2023-04-10T11:40:14;17.10;42.80
62259;DHT22;48241;48.824;10.102;2023-04-10T11:42:41;17.50;42.90
62259;DHT22;48241;48.824;10.102;2023-04-10T11:45:26;17.70;39.10
62259;DHT22;48241;48.824;10.102;2023-04-10T11:48:08;16.10;40.80
62259;DHT22;48241;48.824;10.102;2023-04-10T11:50:35;17.20;41.00
62259;DHT22;48241;48.824;10.102;2023-04-10T11:53:01;18.40;40.00
62259;DHT22;48241;48.824;10.102;2023-04-10T11:55:37;17.50;39.30
62259;DHT22;48241;48.824;10.102;2023-04-10T11:58:03;18.00;41.70
62259;DHT22;48241;48.824;10.102;2023-04-10T12:00:29;17.50;38.30
62259;DHT22;48241;48.824;10.102;2023-04-10T12:02:54;17.60;38.60
62259;DHT22;48241;48.824;10.102;2023-04-10T12:05:20;17.60;38.30
62259;DHT22;48241;48.824;10.102;2023-04-10T12:07:48;17.30;39.30
62259;DHT22;48241;48.824;10.102;2023-04-10T12:10:16;17.10;37.10
62259;DHT22;48241;48.824;10.102;2023-04-10T12:12:42;17.60;37.70
62259;DHT22;48241;48.824;10.102;2023-04-10T12:15:27;17.80;39.40
62259;DHT22;48241;48.824;10.102;2023-04-10T12:17:54;17.20;41.30
62259;DHT22;48241;48.824;10.102;2023-04-10T12:20:20;17.00;39.60
62259;DHT22;48241;48.824;10.102;2023-04-10T12:22:54;16.90;39.50
62259;DHT22;48241;48.824;10.102;2023-04-10T12:25:22;17.00;36.40
62259;DHT22;48241;48.824;10.102;2023-04-10T12:27:49;16.80;37.00
62259;DHT22;48241;48.824;10.102;2023-04-10T12:30:16;17.00;38.20
62259;DHT22;48241;48.824;10.102;2023-04-10T12:33:01;17.20;37.10
62259;DHT22;48241;48.824;10.102;2023-04-10T12:35:48;17.00;38.10
62259;DHT22;48241;48.824;10.102;2023-04-10T12:39:00;16.80;37.70
62259;DHT22;48241;48.824;10.102;2023-04-10T12:41:30;18.20;38.60
62259;DHT22;48241;48.824;10.102;2023-04-10T12:44:11;16.50;38.60
62259;DHT22;48241;48.824;10.102;2023-04-10T12:46:39;16.20;40.40
62259;DHT22;48241;48.824;10.102;2023-04-10T12:49:16;16.10;40.00
62259;DHT22;48241;48.824;10.102;2023-04-10T12:51:43;16.10;40.80
62259;DHT22;48241;48.824;10.102;2023-04-10T12:54:33;16.20;39.60
62259;DHT22;48241;48.824;10.102;2023-04-10T12:57:25;16.20;39.60
62259;DHT22;48241;48.824;10.102;2023-04-10T12:59:51;16.50;39.70
62259;DHT22;48241;48.824;10.102;2023-04-10T13:02:17;16.50;41.80
62259;DHT22;48241;48.824;10.102;2023-04-10T13:04:55;16.40;38.70
62259;DHT22;48241;48.824;10.102;2023-04-10T13:07:21;15.60;37.50
62259;DHT22;48241;48.824;10.102;2023-04-10T13:09:46;16.20;38.80
62259;DHT22;48241;48.824;10.102;2023-04-10T13:12:13;16.50;38.90
62259;DHT22;48241;48.824;10.102;2023-04-10T13:14:48;15.60;38.30
62259;DHT22;48241;48.824;10.102;2023-04-10T13:17:14;16.90;38.80
62259;DHT22;48241;48.824;10.102;2023-04-10T13:19:40;17.10;38.10
62259;DHT22;48241;48.824;10.102;2023-04-10T13:22:08;17.60;38.00
62259;DHT22;48241;48.824;10.102;2023-04-10T13:24:35;16.60;37.30
62259;DHT22;48241;48.824;10.102;2023-04-10T13:27:10;16.80;38.30
62259;DHT22;48241;48.824;10.102;2023-04-10T13:29:37;17.30;38.60
62259;DHT22;48241;48.824;10.102;2023-04-10T13:32:04;16.70;36.90
62259;DHT22;48241;48.824;10.102;2023-04-10T13:34:31;17.80;36.00
62259;DHT22;48241;48.824;10.102;2023-04-10T13:36:57;17.60;35.90
62259;DHT22;48241;48.824;10.102;2023-04-10T13:39:24;17.70;35.50
62259;DHT22;48241;48.824;10.102;2023-04-10T13:41:50;17.30;35.40
62259;DHT22;48241;48.824;10.102;2023-04-10T13:44:16;17.30;35.80
62259;DHT22;48241;48.824;10.102;2023-04-10T13:46:42;16.70;36.50
62259;DHT22;48241;48.824;10.102;2023-04-10T13:49:08;15.90;36.30
62259;DHT22;48241;48.824;10.102;2023-04-10T13:51:34;16.70;36.60
62259;DHT22;48241;48.824;10.102;2023-04-10T13:54:01;17.00;37.40
62259;DHT22;48241;48.824;10.102;2023-04-10T13:56:36;17.40;37.90
62259;DHT22;48241;48.824;10.102;2023-04-10T13:59:03;17.80;35.50
62259;DHT22;48241;48.824;10.102;2023-04-10T14:01:31;17.30;35.00
62259;DHT22;48241;48.824;10.102;2023-04-10T14:03:59;17.90;37.00
62259;DHT22;48241;48.824;10.102;2023-04-10T14:06:29;17.70;35.80
62259;DHT22;48241;48.824;10.102;2023-04-10T14:09:11;17.50;36.00
62259;DHT22;48241;48.824;10.102;2023-04-10T14:11:37;17.80;35.60
62259;DHT22;48241;48.824;10.102;2023-04-10T14:14:03;18.00;35.80
62259;DHT22;48241;48.824;10.102;2023-04-10T14:16:31;18.30;35.60
62259;DHT22;48241;48.824;10.102;2023-04-10T14:19:10;18.60;34.90
62259;DHT22;48241;48.824;10.102;2023-04-10T14:21:36;18.50;35.40
62259;DHT22;48241;48.824;10.102;2023-04-10T14:24:05;20.10;36.40
62259;DHT22;48241;48.824;10.102;2023-04-10T14:26:36;18.20;34.10
62259;DHT22;48241;48.824;10.102;2023-04-10T14:29:02;18.50;35.40
62259;DHT22;48241;48.824;10.102;2023-04-10T14:31:31;18.90;34.80
62259;DHT22;48241;48.824;10.102;2023-04-10T14:34:00;19.00;34.30
62259;DHT22;48241;48.824;10.102;2023-04-10T14:36:26;18.50;34.80
62259;DHT22;48241;48.824;10.102;2023-04-10T14:38:53;18.50;34.80
62259;DHT22;48241;48.824;10.102;2023-04-10T14:41:20;18.30;35.80
62259;DHT22;48241;48.824;10.102;2023-04-10T14:43:46;18.90;34.80
62259;DHT22;48241;48.824;10.102;2023-04-10T14:46:12;18.90;34.50
62259;DHT22;48241;48.824;10.102;2023-04-10T14:48:38;18.70;34.50
62259;DHT22;48241;48.824;10.102;2023-04-10T14:51:12;18.50;34.70
62259;DHT22;48241;48.824;10.102;2023-04-10T14:53:38;18.20;35.20
62259;DHT22;48241;48.824;10.102;2023-04-10T14:56:33;17.90;36.60
62259;DHT22;48241;48.824;10.102;2023-04-10T14:58:59;17.70;35.90
62259;DHT22;48241;48.824;10.102;2023-04-10T15:01:25;18.10;35.70
62259;DHT22;48241;48.824;10.102;2023-04-10T15:03:56;18.20;35.50
62259;DHT22;48241;48.824;10.102;2023-04-10T15:06:22;18.30;35.20
62259;DHT22;48241;48.824;10.102;2023-04-10T15:08:48;18.20;35.20
62259;DHT22;48241;48.824;10.102;2023-04-10T15:11:16;18.80;34.90
62259;DHT22;48241;48.824;10.102;2023-04-10T15:13:46;19.00;34.80
62259;DHT22;48241;48.824;10.102;2023-04-10T15:16:12;19.10;36.80
62259;DHT22;48241;48.824;10.102;2023-04-10T15:18:38;19.20;34.80
62259;DHT22;48241;48.824;10.102;2023-04-10T15:21:05;18.80;35.60
62259;DHT22;48241;48.824;10.102;2023-04-10T15:23:31;19.60;33.70
62259;DHT22;48241;48.824;10.102;2023-04-10T15:25:57;20.20;33.00
62259;DHT22;48241;48.824;10.102;2023-04-10T15:28:23;20.40;34.00
62259;DHT22;48241;48.824;10.102;2023-04-10T15:30:49;20.50;34.40
62259;DHT22;48241;48.824;10.102;2023-04-10T15:33:19;20.70;33.30
62259;DHT22;48241;48.824;10.102;2023-04-10T15:35:55;20.50;32.70
62259;DHT22;48241;48.824;10.102;2023-04-10T15:38:23;20.50;33.70
62259;DHT22;48241;48.824;10.102;2023-04-10T15:41:08;20.30;31.70
62259;DHT22;48241;48.824;10.102;2023-04-10T15:43:45;20.30;31.70
62259;DHT22;48241;48.824;10.102;2023-04-10T15:46:19;19.40;32.70
62259;DHT22;48241;48.824;10.102;2023-04-10T15:48:45;19.70;33.00
62259;DHT22;48241;48.824;10.102;2023-04-10T15:51:17;19.50;32.30
62259;DHT22;48241;48.824;10.102;2023-04-10T15:53:43;19.40;32.40
62259;DHT22;48241;48.824;10.102;2023-04-10T15:56:10;19.00;33.00
62259;DHT22;48241;48.824;10.102;2023-04-10T15:58:36;19.00;33.80
62259;DHT22;48241;48.824;10.102;2023-04-10T16:01:03;18.50;33.30
62259;DHT22;48241;48.824;10.102;2023-04-10T16:03:39;18.80;33.80
62259;DHT22;48241;48.824;10.102;2023-04-10T16:06:04;19.20;34.60
62259;DHT22;48241;48.824;10.102;2023-04-10T16:08:30;19.60;34.20
62259;DHT22;48241;48.824;10.102;2023-04-10T16:10:56;19.70;32.80
62259;DHT22;48241;48.824;10.102;2023-04-10T16:13:23;20.00;33.20
62259;DHT22;48241;48.824;10.102;2023-04-10T16:15:49;18.90;33.00
62259;DHT22;48241;48.824;10.102;2023-04-10T16:18:15;18.90;33.20
62259;DHT22;48241;48.824;10.102;2023-04-10T16:20:41;18.90;33.70
62259;DHT22;48241;48.824;10.102;2023-04-10T16:23:07;18.80;34.20
62259;DHT22;48241;48.824;10.102;2023-04-10T16:25:33;18.40;33.00
62259;DHT22;48241;48.824;10.102;2023-04-10T16:28:00;17.00;34.10
62259;DHT22;48241;48.824;10.102;2023-04-10T16:30:41;18.30;35.00
62259;DHT22;48241;48.824;10.102;2023-04-10T16:33:08;17.50;35.00
62259;DHT22;48241;48.824;10.102;2023-04-10T16:35:36;18.10;34.90
62259;DHT22;48241;48.824;10.102;2023-04-10T16:38:22;17.80;35.60
62259;DHT22;48241;48.824;10.102;2023-04-10T16:40:51;17.90;35.10
62259;DHT22;48241;48.824;10.102;2023-04-10T16:43:30;18.00;36.30
62259;DHT22;48241;48.824;10.102;2023-04-10T16:46:14;18.20;35.80
62259;DHT22;48241;48.824;10.102;2023-04-10T16:48:41;18.20;35.30
62259;DHT22;48241;48.824;10.102;2023-04-10T16:51:20;17.90;34.90
62259;DHT22;48241;48.824;10.102;2023-04-10T16:53:49;17.60;35.70
62259;DHT22;48241;48.824;10.102;2023-04-10T16:56:15;17.50;35.80
62259;DHT22;48241;48.824;10.102;2023-04-10T16:58:41;17.60;36.10
62259;DHT22;48241;48.824;10.102;2023-04-10T17:01:13;17.40;35.90
62259;DHT22;48241;48.824;10.102;2023-04-10T17:03:39;17.40;36.20
62259;DHT22;48241;48.824;10.102;2023-04-10T17:06:06;17.30;36.30
62259;DHT22;48241;48.824;10.102;2023-04-10T17:08:32;17.20;36.80
62259;DHT22;48241;48.824;10.102;2023-04-10T17:10:58;17.10;36.70
62259;DHT22;48241;48.824;10.102;2023-04-10T17:13:50;16.90;37.10
62259;DHT22;48241;48.824;10.102;2023-04-10T17:16:16;17.10;37.10
62259;DHT22;48241;48.824;10.102;2023-04-10T17:18:44;16.60;37.60
62259;DHT22;48241;48.824;10.102;2023-04-10T17:21:21;16.60;37.60
62259;DHT22;48241;48.824;10.102;2023-04-10T17:23:47;16.60;37.80
62259;DHT22;48241;48.824;10.102;2023-04-10T17:26:15;17.50;38.50
62259;DHT22;48241;48.824;10.102;2023-04-10T17:28:42;16.30;37.90
62259;DHT22;48241;48.824;10.102;2023-04-10T17:31:25;16.40;38.20
62259;DHT22;48241;48.824;10.102;2023-04-10T17:33:51;17.00;39.10
62259;DHT22;48241;48.824;10.102;2023-04-10T17:36:17;16.30;38.70
62259;DHT22;48241;48.824;10.102;2023-04-10T17:38:43;16.70;38.90
62259;DHT22;48241;48.824;10.102;2023-04-10T17:41:13;16.00;39.80
62259;DHT22;48241;48.824;10.102;2023-04-10T17:43:50;15.90;39.70
62259;DHT22;48241;48.824;10.102;2023-04-10T17:46:16;15.50;39.40
62259;DHT22;48241;48.824;10.102;2023-04-10T17:48:43;15.80;39.70
62259;DHT22;48241;48.824;10.102;2023-04-10T17:51:10;15.30;39.60
62259;DHT22;48241;48.824;10.102;2023-04-10T17:53:36;15.40;39.90
62259;DHT22;48241;48.824;10.102;2023-04-10T17:56:03;15.20;40.60
62259;DHT22;48241;48.824;10.102;2023-04-10T17:58:29;15.30;40.60
62259;DHT22;48241;48.824;10.102;2023-04-10T18:00:55;15.20;41.00
62259;DHT22;48241;48.824;10.102;2023-04-10T18:03:21;15.00;41.10
62259;DHT22;48241;48.824;10.102;2023-04-10T18:05:47;15.00;41.50
62259;DHT22;48241;48.824;10.102;2023-04-10T18:08:12;15.10;41.80
62259;DHT22;48241;48.824;10.102;2023-04-10T18:10:38;15.00;42.30
62259;DHT22;48241;48.824;10.102;2023-04-10T18:13:05;14.70;42.30
62259;DHT22;48241;48.824;10.102;2023-04-10T18:15:31;15.30;43.00
62259;DHT22;48241;48.824;10.102;2023-04-10T18:17:57;14.40;42.40
62259;DHT22;48241;48.824;10.102;2023-04-10T18:20:23;14.60;42.90
62259;DHT22;48241;48.824;10.102;2023-04-10T18:22:49;15.40;43.90
62259;DHT22;48241;48.824;10.102;2023-04-10T18:25:15;14.40;43.40
62259;DHT22;48241;48.824;10.102;2023-04-10T18:27:59;14.30;42.80
62259;DHT22;48241;48.824;10.102;2023-04-10T18:30:25;14.60;43.10
62259;DHT22;48241;48.824;10.102;2023-04-10T18:32:51;14.50;43.40
62259;DHT22;48241;48.824;10.102;2023-04-10T18:35:17;14.40;43.60
62259;DHT22;48241;48.824;10.102;2023-04-10T18:37:43;14.10;43.30
62259;DHT22;48241;48.824;10.102;2023-04-10T18:40:09;14.40;43.80
62259;DHT22;48241;48.824;10.102;2023-04-10T18:42:35;14.40;43.60
62259;DHT22;48241;48.824;10.102;2023-04-10T18:45:01;14.00;43.40
62259;DHT22;48241;48.824;10.102;2023-04-10T18:47:30;14.30;43.30
62259;DHT22;48241;48.824;10.102;2023-04-10T18:49:58;14.40;43.00
62259;DHT22;48241;48.824;10.102;2023-04-10T18:52:24;14.40;42.60
62259;DHT22;48241;48.824;10.102;2023-04-10T18:54:51;14.80;43.80
62259;DHT22;48241;48.824;10.102;2023-04-10T18:57:17;13.80;42.70
62259;DHT22;48241;48.824;10.102;2023-04-10T18:59:49;14.50;43.30
62259;DHT22;48241;48.824;10.102;2023-04-10T19:02:18;14.50;42.70
62259;DHT22;48241;48.824;10.102;2023-04-10T19:04:51;14.50;43.50
62259;DHT22;48241;48.824;10.102;2023-04-10T19:07:41;13.80;42.70
62259;DHT22;48241;48.824;10.102;2023-04-10T19:10:17;14.10;43.70
62259;DHT22;48241;48.824;10.102;2023-04-10T19:13:16;14.20;43.70
62259;DHT22;48241;48.824;10.102;2023-04-10T19:16:05;14.20;44.40